createdAt,value
2023-04-30T00:00:01.759Z,12.88
2023-04-30T00:02:29.020Z,13.07
2023-04-30T00:04:56.096Z,12.07
2023-04-30T00:07:23.373Z,12.10
2023-04-30T00:09:51.610Z,15.18
2023-04-30T00:12:18.944Z,13.48
2023-04-30T00:14:46.138Z,12.48
2023-04-30T00:17:13.245Z,14.07
2023-04-30T00:19:40.345Z,12.25
2023-04-30T00:22:07.601Z,12.50
2023-04-30T00:24:34.898Z,10.90
2023-04-30T00:27:02.026Z,10.43
2023-04-30T00:29:29.109Z,12.10
2023-04-30T00:31:56.219Z,10.23
2023-04-30T00:34:23.444Z,10.48
2023-04-30T00:36:50.903Z,12.07
2023-04-30T00:39:18.260Z,12.45
2023-04-30T00:41:46.225Z,12.82
2023-04-30T00:44:13.372Z,13.77
2023-04-30T00:46:41.137Z,12.98
2023-04-30T00:49:08.641Z,13.13
2023-04-30T00:51:36.505Z,13.65
2023-04-30T00:54:04.018Z,16.67
2023-04-30T01:02:53.123Z,14.18
2023-04-30T01:05:20.332Z,13.50
2023-04-30T01:07:47.468Z,13.38
2023-04-30T01:10:15.799Z,14.07
2023-04-30T01:13:26.831Z,14.60
2023-04-30T01:16:24.698Z,10.98
2023-04-30T01:18:58.394Z,10.60
2023-04-30T01:21:28.311Z,12.38
2023-04-30T01:24:32.763Z,15.25
2023-04-30T01:27:05.511Z,12.55
2023-04-30T01:29:34.909Z,11.60
2023-04-30T01:32:05.594Z,11.82
2023-04-30T01:34:32.763Z,12.95
2023-04-30T01:37:34.510Z,10.63
2023-04-30T01:40:19.577Z,11.40
2023-04-30T01:43:21.238Z,12.82
2023-04-30T01:46:12.010Z,11.88
2023-04-30T01:48:56.448Z,10.02
2023-04-30T01:51:40.239Z,9.70
2023-04-30T01:54:12.667Z,14.52
2023-04-30T01:56:46.311Z,11.45
2023-04-30T01:59:15.204Z,11.15
2023-04-30T02:01:42.501Z,11.95
2023-04-30T02:04:09.670Z,13.45
2023-04-30T02:06:36.911Z,11.10
2023-04-30T02:09:06.466Z,11.15
2023-04-30T02:11:33.609Z,10.18
2023-04-30T02:14:00.759Z,12.18
2023-04-30T02:16:28.035Z,11.40
2023-04-30T02:18:55.257Z,12.48
2023-04-30T02:21:22.315Z,12.07
2023-04-30T02:23:49.659Z,11.93
2023-04-30T02:26:16.795Z,12.75
2023-04-30T02:28:44.213Z,11.32
2023-04-30T02:31:11.628Z,12.63
2023-04-30T02:33:38.875Z,11.68
2023-04-30T02:36:06.177Z,12.57
2023-04-30T02:38:33.198Z,12.52
2023-04-30T02:41:00.550Z,12.15
2023-04-30T02:43:27.729Z,13.77
2023-04-30T02:45:54.842Z,11.70
2023-04-30T02:48:22.072Z,10.18
2023-04-30T02:50:49.171Z,12.63
2023-04-30T02:53:16.419Z,12.32
2023-04-30T02:55:43.470Z,12.50
2023-04-30T02:58:10.616Z,11.35
2023-04-30T03:00:37.820Z,12.40
2023-04-30T03:03:05.062Z,11.77
2023-04-30T03:05:32.377Z,10.25
2023-04-30T03:07:59.473Z,11.18
2023-04-30T03:10:26.517Z,10.00
2023-04-30T03:12:54.491Z,8.13
2023-04-30T03:15:21.583Z,11.30
2023-04-30T03:17:49.815Z,10.90
2023-04-30T03:20:17.374Z,9.93
2023-04-30T03:22:44.522Z,11.40
2023-04-30T03:25:11.976Z,9.43
2023-04-30T03:27:39.180Z,9.07
2023-04-30T03:30:07.642Z,10.68
2023-04-30T03:32:34.921Z,9.93
2023-04-30T03:35:02.078Z,9.70
2023-04-30T03:37:29.209Z,9.57
2023-04-30T03:39:56.508Z,9.00
2023-04-30T03:42:24.074Z,10.88
2023-04-30T03:44:51.237Z,10.15
2023-04-30T03:47:18.458Z,9.07
2023-04-30T03:49:45.611Z,8.10
2023-04-30T03:52:12.631Z,9.38
2023-04-30T03:54:39.808Z,7.55
2023-04-30T03:57:09.030Z,8.27
2023-04-30T03:59:36.123Z,7.95
2023-04-30T04:02:08.837Z,7.13
2023-04-30T04:04:36.050Z,8.45
2023-04-30T04:07:04.283Z,10.55
2023-04-30T04:09:31.301Z,9.88
2023-04-30T04:11:58.368Z,9.43
2023-04-30T04:14:25.471Z,11.10
2023-04-30T04:16:52.666Z,9.77
2023-04-30T04:19:19.712Z,8.63
2023-04-30T04:21:46.973Z,7.68
2023-04-30T04:24:14.066Z,11.77
2023-04-30T04:26:41.731Z,8.90
2023-04-30T04:29:09.762Z,9.30
2023-04-30T04:31:37.083Z,7.50
2023-04-30T04:34:05.277Z,10.18
2023-04-30T04:36:33.773Z,9.23
2023-04-30T04:39:04.542Z,9.50
2023-04-30T04:41:33.196Z,10.60
2023-04-30T04:44:02.088Z,9.32
2023-04-30T04:46:31.918Z,10.90
2023-04-30T04:48:59.480Z,9.00
2023-04-30T04:51:27.179Z,9.27
2023-04-30T04:53:54.481Z,9.27
2023-04-30T04:56:21.707Z,9.88
2023-04-30T04:58:48.794Z,8.40
2023-04-30T05:01:16.388Z,9.07
2023-04-30T05:03:43.568Z,8.43
2023-04-30T05:06:10.881Z,10.10
2023-04-30T05:08:38.628Z,9.10
2023-04-30T05:11:05.881Z,10.52
2023-04-30T05:13:32.946Z,10.05
2023-04-30T05:16:00.098Z,8.23
2023-04-30T05:18:28.193Z,10.13
2023-04-30T05:20:55.240Z,8.35
2023-04-30T05:23:22.442Z,8.95
2023-04-30T05:25:53.798Z,9.02
2023-04-30T05:28:21.035Z,9.45
2023-04-30T05:30:48.293Z,9.93
2023-04-30T05:33:15.498Z,8.43
2023-04-30T05:35:42.740Z,8.73
2023-04-30T05:38:09.858Z,8.30
2023-04-30T05:40:37.013Z,8.13
2023-04-30T05:43:05.622Z,9.52
2023-04-30T05:45:32.804Z,9.32
2023-04-30T05:48:00.012Z,9.50
2023-04-30T05:50:27.121Z,10.25
2023-04-30T05:52:54.220Z,8.65
2023-04-30T05:55:21.533Z,9.25
2023-04-30T05:57:48.621Z,10.43
2023-04-30T06:00:16.404Z,7.70
2023-04-30T06:02:43.672Z,6.25
2023-04-30T06:05:10.921Z,6.50
2023-04-30T06:07:39.320Z,8.50
2023-04-30T06:10:07.299Z,10.15
2023-04-30T06:12:34.439Z,9.30
2023-04-30T06:15:02.900Z,9.70
2023-04-30T06:17:30.042Z,9.77
2023-04-30T06:19:59.228Z,8.48
2023-04-30T06:22:26.414Z,6.50
2023-04-30T06:24:53.480Z,6.65
2023-04-30T06:27:20.648Z,8.77
2023-04-30T06:29:47.672Z,9.38
2023-04-30T06:32:15.882Z,9.85
2023-04-30T06:34:42.933Z,8.77
2023-04-30T06:37:10.087Z,8.73
2023-04-30T06:39:37.124Z,9.30
2023-04-30T06:42:05.709Z,9.52
2023-04-30T06:44:33.371Z,9.57
2023-04-30T06:47:00.484Z,9.50
2023-04-30T06:49:27.677Z,9.45
2023-04-30T06:51:56.364Z,9.02
2023-04-30T06:54:23.709Z,8.32
2023-04-30T06:56:50.818Z,8.35
2023-04-30T06:59:18.112Z,8.43
2023-04-30T07:01:49.252Z,8.90
2023-04-30T07:06:57.221Z,7.72
2023-04-30T07:09:24.495Z,7.43
2023-04-30T07:11:52.186Z,7.95
2023-04-30T07:14:19.284Z,7.00
2023-04-30T07:16:46.392Z,7.72
2023-04-30T07:19:13.430Z,8.63
2023-04-30T07:21:40.834Z,7.53
2023-04-30T07:24:07.989Z,6.25
2023-04-30T07:26:36.205Z,6.30
2023-04-30T07:29:04.230Z,6.25
2023-04-30T07:31:31.549Z,5.80
2023-04-30T07:33:58.831Z,5.80
2023-04-30T07:36:27.752Z,5.28
2023-04-30T07:38:54.877Z,5.07
2023-04-30T07:41:22.136Z,6.03
2023-04-30T07:43:49.425Z,5.88
2023-04-30T07:46:16.588Z,5.25
2023-04-30T07:48:43.729Z,5.97
2023-04-30T07:51:10.944Z,6.85
2023-04-30T07:53:37.977Z,6.80
2023-04-30T07:56:05.379Z,7.55
2023-04-30T07:58:32.451Z,7.10
2023-04-30T08:00:59.679Z,5.88
2023-04-30T08:03:26.885Z,7.05
2023-04-30T08:05:54.195Z,7.25
2023-04-30T08:08:21.793Z,6.70
2023-04-30T08:10:48.952Z,6.18
2023-04-30T08:13:16.461Z,6.60
2023-04-30T08:15:43.618Z,6.22
2023-04-30T08:18:10.845Z,5.68
2023-04-30T08:20:38.730Z,6.13
2023-04-30T08:23:06.159Z,5.55
2023-04-30T08:25:33.483Z,5.82
2023-04-30T08:28:00.837Z,5.57
2023-04-30T08:30:27.932Z,5.70
2023-04-30T08:32:57.530Z,5.40
2023-04-30T08:35:25.778Z,5.30
2023-04-30T08:37:53.732Z,6.38
2023-04-30T08:40:21.969Z,5.32
2023-04-30T08:43:06.565Z,6.30
2023-04-30T08:45:35.130Z,8.10
2023-04-30T08:48:02.988Z,8.60
2023-04-30T08:50:30.521Z,8.25
2023-04-30T08:53:02.026Z,7.57
2023-04-30T08:55:29.529Z,7.78
2023-04-30T08:57:56.681Z,6.32
2023-04-30T09:00:23.827Z,6.30
2023-04-30T09:02:51.225Z,6.70
2023-04-30T09:05:18.383Z,6.70
2023-04-30T09:10:22.994Z,6.20
2023-04-30T09:13:05.533Z,6.07
2023-04-30T09:15:34.404Z,6.97
2023-04-30T09:18:17.672Z,6.20
2023-04-30T09:21:05.077Z,6.00
2023-04-30T09:23:33.214Z,5.50
2023-04-30T09:26:01.265Z,5.53
2023-04-30T09:28:29.441Z,5.07
2023-04-30T09:30:57.500Z,5.18
2023-04-30T09:33:24.665Z,5.72
2023-04-30T09:35:52.114Z,5.10
2023-04-30T09:38:31.252Z,4.97
2023-04-30T09:41:06.026Z,5.10
2023-04-30T09:43:33.796Z,4.50
2023-04-30T09:46:01.052Z,5.20
2023-04-30T09:48:28.702Z,4.28
2023-04-30T09:50:56.319Z,5.38
2023-04-30T09:53:24.494Z,5.15
2023-04-30T09:55:52.505Z,4.85
2023-04-30T09:58:20.165Z,4.93
2023-04-30T10:00:49.766Z,4.53
2023-04-30T10:03:17.496Z,4.40
2023-04-30T10:05:47.759Z,4.18
2023-04-30T10:08:47.030Z,4.45
2023-04-30T10:11:18.628Z,4.22
2023-04-30T10:14:03.693Z,3.33
2023-04-30T10:16:58.084Z,3.45
2023-04-30T10:19:30.006Z,2.90
2023-04-30T10:21:57.914Z,2.47
2023-04-30T10:24:25.103Z,2.65
2023-04-30T10:26:52.405Z,1.80
2023-04-30T10:29:19.754Z,2.30
2023-04-30T10:31:52.984Z,2.75
2023-04-30T10:34:29.522Z,2.10
2023-04-30T10:37:04.966Z,3.30
2023-04-30T10:42:05.051Z,2.92
2023-04-30T10:44:37.690Z,1.98
2023-04-30T10:47:07.076Z,2.28
2023-04-30T10:49:35.159Z,2.30
2023-04-30T10:52:04.251Z,3.05
2023-04-30T10:54:34.669Z,2.85
2023-04-30T10:57:17.965Z,2.08
2023-04-30T10:59:54.629Z,2.53
2023-04-30T11:02:22.111Z,1.90
2023-04-30T11:05:11.862Z,1.90
2023-04-30T11:07:51.487Z,1.52
2023-04-30T11:10:23.630Z,1.70
2023-04-30T11:12:52.868Z,1.88
2023-04-30T11:15:23.008Z,1.30
2023-04-30T11:17:50.755Z,1.85
2023-04-30T11:20:24.146Z,1.67
2023-04-30T11:23:10.698Z,1.40
2023-04-30T11:26:01.310Z,1.73
2023-04-30T11:28:29.275Z,1.50
2023-04-30T11:30:58.696Z,1.70
2023-04-30T11:33:28.864Z,2.17
2023-04-30T11:35:58.147Z,1.73
2023-04-30T11:38:30.407Z,1.50
2023-04-30T11:41:02.926Z,1.73
2023-04-30T11:43:32.298Z,1.80
2023-04-30T11:46:11.070Z,2.00
2023-04-30T11:48:47.704Z,1.98
2023-04-30T11:51:24.351Z,1.88
2023-04-30T11:53:53.143Z,2.22
2023-04-30T11:56:25.854Z,2.22
2023-04-30T11:58:55.217Z,2.25
2023-04-30T12:01:22.686Z,2.13
2023-04-30T12:03:51.431Z,2.50
2023-04-30T12:06:29.155Z,1.92
2023-04-30T12:08:57.898Z,1.65
2023-04-30T12:11:29.470Z,1.98
2023-04-30T12:14:01.214Z,1.80
2023-04-30T12:16:38.896Z,1.90
2023-04-30T12:19:06.157Z,1.75
2023-04-30T12:21:35.378Z,2.28
2023-04-30T12:24:03.553Z,1.45
2023-04-30T12:26:41.225Z,1.85
2023-04-30T12:29:18.823Z,1.33
2023-04-30T12:31:49.394Z,2.15
2023-04-30T12:34:17.486Z,2.10
2023-04-30T12:36:44.678Z,2.00
2023-04-30T12:39:16.540Z,1.98
2023-04-30T12:41:48.861Z,0.90
2023-04-30T12:44:19.076Z,1.17
2023-04-30T12:46:50.724Z,1.65
2023-04-30T12:49:28.866Z,2.03
2023-04-30T12:52:00.463Z,2.60
2023-04-30T12:54:33.018Z,1.95
2023-04-30T12:57:04.567Z,1.52
2023-04-30T12:59:34.225Z,1.00
2023-04-30T13:02:17.594Z,1.10
2023-04-30T13:04:45.468Z,0.90
2023-04-30T13:07:17.085Z,0.82
2023-04-30T13:09:44.272Z,1.17
2023-04-30T13:12:11.626Z,1.67
2023-04-30T13:14:38.676Z,1.20
2023-04-30T13:17:07.622Z,1.63
2023-04-30T13:19:35.530Z,0.88
2023-04-30T13:22:02.933Z,1.30
2023-04-30T13:24:31.469Z,1.25
2023-04-30T13:26:59.585Z,1.25
2023-04-30T13:29:27.141Z,1.00
2023-04-30T13:31:54.304Z,1.55
2023-04-30T13:34:21.548Z,1.00
2023-04-30T13:36:49.008Z,1.02
2023-04-30T13:39:16.056Z,1.23
2023-04-30T13:41:43.207Z,1.38
2023-04-30T13:44:10.763Z,1.40
2023-04-30T13:46:37.923Z,1.83
2023-04-30T13:49:05.930Z,1.02
2023-04-30T13:51:33.014Z,1.05
2023-04-30T13:54:00.146Z,1.60
2023-04-30T13:56:27.330Z,1.38
2023-04-30T13:58:54.480Z,1.20
2023-04-30T14:01:21.601Z,0.90
2023-04-30T14:03:48.950Z,1.00
2023-04-30T14:06:16.269Z,1.60
2023-04-30T14:08:43.502Z,1.35
2023-04-30T14:11:10.844Z,1.60
2023-04-30T14:13:38.092Z,2.15
2023-04-30T14:16:05.557Z,1.80
2023-04-30T14:18:32.848Z,1.38
2023-04-30T14:21:00.097Z,1.48
2023-04-30T14:23:29.347Z,1.33
2023-04-30T14:25:56.808Z,1.33
2023-04-30T14:28:24.119Z,1.05
2023-04-30T14:30:51.413Z,1.02
2023-04-30T14:33:18.700Z,0.90
2023-04-30T14:35:46.633Z,0.93
2023-04-30T14:38:14.905Z,0.80
2023-04-30T14:40:45.541Z,1.10
2023-04-30T14:43:12.689Z,1.05
2023-04-30T14:45:40.474Z,0.95
2023-04-30T14:48:07.860Z,1.00
2023-04-30T14:50:35.064Z,0.85
2023-04-30T14:53:02.259Z,0.50
2023-04-30T14:55:29.362Z,0.50
2023-04-30T14:57:56.715Z,0.50
2023-04-30T15:00:23.998Z,0.60
2023-04-30T15:02:52.601Z,1.20
2023-04-30T15:05:19.915Z,0.82
2023-04-30T15:07:47.000Z,0.55
2023-04-30T15:10:14.314Z,0.80
2023-04-30T15:12:41.965Z,0.70
2023-04-30T15:15:09.526Z,1.33
2023-04-30T15:17:39.472Z,1.10
2023-04-30T15:20:07.460Z,0.90
2023-04-30T15:22:34.924Z,0.98
2023-04-30T15:25:02.645Z,1.10
2023-04-30T15:27:31.773Z,1.40
2023-04-30T15:29:59.640Z,1.45
2023-04-30T15:32:26.839Z,1.35
2023-04-30T15:34:54.553Z,0.88
2023-04-30T15:37:21.707Z,0.90
2023-04-30T15:39:49.916Z,0.73
2023-04-30T15:42:17.180Z,1.23
2023-04-30T15:44:44.326Z,0.90
2023-04-30T15:47:12.669Z,0.82
2023-04-30T15:49:39.855Z,1.00
2023-04-30T15:52:07.215Z,1.10
2023-04-30T15:54:34.366Z,1.08
2023-04-30T15:57:03.139Z,1.20
2023-04-30T15:59:30.912Z,0.98
2023-04-30T16:01:58.155Z,1.20
2023-04-30T16:04:25.315Z,0.85
2023-04-30T16:06:52.824Z,1.70
2023-04-30T16:09:20.224Z,1.75
2023-04-30T16:11:51.125Z,1.10
2023-04-30T16:14:18.269Z,1.40
2023-04-30T16:16:45.744Z,1.30
2023-04-30T16:19:12.924Z,1.00
2023-04-30T16:21:40.659Z,1.10
2023-04-30T16:24:09.065Z,0.80
2023-04-30T16:26:36.674Z,1.20
2023-04-30T16:29:05.051Z,1.23
2023-04-30T16:31:32.756Z,1.77
2023-04-30T16:34:00.022Z,1.30
2023-04-30T16:36:28.373Z,1.20
2023-04-30T16:38:55.441Z,1.15
2023-04-30T16:41:22.537Z,1.50
2023-04-30T16:43:49.724Z,1.45
2023-04-30T16:46:17.008Z,1.17
2023-04-30T16:48:44.501Z,1.48
2023-04-30T16:51:11.661Z,1.50
2023-04-30T16:53:38.747Z,1.67
2023-04-30T16:56:06.207Z,1.73
2023-04-30T16:58:33.349Z,1.50
2023-04-30T17:01:04.804Z,1.30
2023-04-30T17:03:34.893Z,1.08
2023-04-30T17:06:02.210Z,1.05
2023-04-30T17:08:29.424Z,1.33
2023-04-30T17:10:56.520Z,1.42
2023-04-30T17:13:23.735Z,1.38
2023-04-30T17:15:50.899Z,1.50
2023-04-30T17:18:18.676Z,1.42
2023-04-30T17:20:46.857Z,2.17
2023-04-30T17:23:13.962Z,1.30
2023-04-30T17:25:41.007Z,1.27
2023-04-30T17:28:08.256Z,1.08
2023-04-30T17:30:36.412Z,1.10
2023-04-30T17:33:27.085Z,1.55
2023-04-30T17:35:54.767Z,1.20
2023-04-30T17:38:21.950Z,1.38
2023-04-30T17:40:48.992Z,0.85
2023-04-30T17:43:16.297Z,1.27
2023-04-30T17:45:44.518Z,1.20
2023-04-30T17:48:11.844Z,1.58
2023-04-30T17:50:39.027Z,1.08
2023-04-30T17:53:06.591Z,1.10
2023-04-30T17:55:33.758Z,1.40
2023-04-30T17:58:01.002Z,1.17
2023-04-30T18:00:28.140Z,0.95
2023-04-30T18:02:55.344Z,1.17
2023-04-30T18:05:22.649Z,0.90
2023-04-30T18:07:49.941Z,0.70
2023-04-30T18:10:17.141Z,0.75
2023-04-30T18:12:44.214Z,0.90
2023-04-30T18:15:13.437Z,0.82
2023-04-30T18:17:41.834Z,0.63
2023-04-30T18:20:12.367Z,0.80
2023-04-30T18:22:43.732Z,0.85
2023-04-30T18:25:13.534Z,1.05
2023-04-30T18:27:41.326Z,0.90
2023-04-30T18:30:10.054Z,0.68
2023-04-30T18:32:37.834Z,0.60
2023-04-30T18:35:05.282Z,0.68
2023-04-30T18:37:32.349Z,0.73
2023-04-30T18:40:00.587Z,0.98
2023-04-30T18:42:27.900Z,0.70
2023-04-30T18:44:55.572Z,0.95
2023-04-30T18:47:22.674Z,1.23
2023-04-30T18:49:49.797Z,1.35
2023-04-30T18:52:16.907Z,1.05
2023-04-30T18:54:44.208Z,1.08
2023-04-30T18:57:14.889Z,0.90
2023-04-30T18:59:42.543Z,0.73
2023-04-30T19:02:11.044Z,0.98
2023-04-30T19:04:38.267Z,0.80
2023-04-30T19:07:05.485Z,1.20
2023-04-30T19:09:37.001Z,0.43
2023-04-30T19:12:05.619Z,0.68
2023-04-30T19:14:33.077Z,0.73
2023-04-30T19:17:01.323Z,0.88
2023-04-30T19:19:28.577Z,0.70
2023-04-30T19:21:56.011Z,0.50
2023-04-30T19:24:25.445Z,0.65
2023-04-30T19:26:52.775Z,1.05
2023-04-30T19:29:19.863Z,0.90
2023-04-30T19:31:47.198Z,0.93
2023-04-30T19:34:14.395Z,0.60
2023-04-30T19:36:42.516Z,0.60
